createdAt,value
2022-08-17T00:01:44.934Z,29.32
2022-08-17T00:04:21.331Z,29.73
2022-08-17T00:06:49.623Z,29.36
2022-08-17T00:09:18.952Z,29.65
2022-08-17T00:12:35.067Z,29.71
2022-08-17T00:14:36.255Z,29.19
2022-08-17T00:17:04.896Z,29.39
2022-08-17T00:19:33.067Z,29.69
2022-08-17T00:22:32.279Z,29.05
2022-08-17T00:24:50.799Z,29.40
2022-08-17T00:27:18.716Z,29.79
2022-08-17T00:29:46.074Z,29.52
2022-08-17T00:33:15.478Z,29.03
2022-08-17T00:35:05.118Z,28.95
2022-08-17T00:37:32.037Z,28.63
2022-08-17T00:39:59.037Z,28.24
2022-08-17T00:42:30.444Z,28.92
2022-08-17T00:44:58.434Z,28.62
2022-08-17T00:47:25.699Z,28.71
2022-08-17T00:49:52.827Z,28.47
2022-08-17T00:52:23.276Z,28.38
2022-08-17T00:54:52.542Z,28.57
2022-08-17T00:57:25.379Z,28.74
2022-08-17T01:00:03.092Z,28.86
2022-08-17T01:02:34.426Z,29.13
2022-08-17T01:05:09.358Z,29.07
2022-08-17T01:07:37.929Z,29.72
2022-08-17T01:10:07.293Z,29.76
2022-08-17T01:12:54.383Z,28.99
2022-08-17T01:15:21.331Z,29.76
2022-08-17T01:17:48.368Z,29.72
2022-08-17T01:20:17.034Z,29.50
2022-08-17T01:22:44.021Z,30.03
2022-08-17T01:25:12.797Z,29.63
2022-08-17T01:27:39.822Z,29.71
2022-08-17T01:30:57.161Z,29.73
2022-08-17T01:32:57.333Z,29.33
2022-08-17T01:35:24.617Z,29.26
2022-08-17T01:37:51.560Z,29.63
2022-08-17T01:40:23.873Z,29.49
2022-08-17T01:43:04.414Z,29.62
2022-08-17T01:45:34.043Z,29.05
2022-08-17T01:48:01.474Z,29.25
2022-08-17T01:50:31.472Z,29.66
2022-08-17T01:53:26.776Z,29.58
2022-08-17T01:55:57.513Z,29.55
2022-08-17T01:58:24.902Z,29.11
2022-08-17T02:01:00.939Z,29.25
2022-08-17T02:03:29.449Z,29.13
2022-08-17T02:05:57.209Z,29.17
2022-08-17T02:08:38.983Z,28.65
2022-08-17T02:11:14.757Z,29.40
2022-08-17T02:13:42.762Z,29.20
2022-08-17T02:16:09.751Z,29.35
2022-08-17T02:18:36.769Z,29.34
2022-08-17T02:21:04.573Z,29.13
2022-08-17T02:23:33.652Z,29.55
2022-08-17T02:26:01.047Z,29.50
2022-08-17T02:28:28.819Z,29.25
2022-08-17T02:31:01.205Z,29.11
2022-08-17T02:33:41.719Z,28.18
2022-08-17T02:36:09.796Z,28.44
2022-08-17T02:38:37.738Z,29.22
2022-08-17T02:41:05.283Z,29.04
2022-08-17T02:43:32.392Z,29.23
2022-08-17T02:45:59.748Z,29.38
2022-08-17T02:48:30.862Z,29.69
2022-08-17T02:50:59.202Z,29.40
2022-08-17T02:53:26.299Z,29.05
2022-08-17T02:55:53.667Z,28.85
2022-08-17T02:58:34.651Z,28.70
2022-08-17T03:01:05.363Z,28.85
2022-08-17T03:03:32.810Z,28.96
2022-08-17T03:05:59.715Z,28.91
2022-08-17T03:08:27.136Z,28.83
2022-08-17T03:10:54.095Z,29.01
2022-08-17T03:13:21.199Z,29.04
2022-08-17T03:15:48.577Z,28.80
2022-08-17T03:18:25.286Z,28.98
2022-08-17T03:20:58.426Z,28.93
2022-08-17T03:23:26.101Z,28.77
2022-08-17T03:25:55.558Z,28.83
2022-08-17T03:28:23.541Z,28.67
2022-08-17T03:30:51.417Z,28.43
2022-08-17T03:33:19.264Z,28.19
2022-08-17T03:35:46.376Z,28.06
2022-08-17T03:38:15.000Z,28.32
2022-08-17T03:40:57.713Z,27.99
2022-08-17T03:43:29.664Z,28.10
2022-08-17T03:46:33.899Z,28.22
2022-08-17T03:49:21.169Z,28.63
2022-08-17T03:52:06.608Z,28.51
2022-08-17T03:54:52.078Z,28.56
2022-08-17T03:57:19.451Z,28.53
2022-08-17T03:59:47.674Z,28.23
2022-08-17T04:02:19.572Z,27.95
2022-08-17T04:04:47.118Z,28.25
2022-08-17T04:07:14.049Z,29.18
2022-08-17T04:09:40.936Z,29.33
2022-08-17T04:12:08.005Z,29.28
2022-08-17T04:14:52.191Z,29.36
2022-08-17T04:17:26.653Z,29.35
2022-08-17T04:19:54.347Z,29.14
2022-08-17T04:22:31.024Z,29.66
2022-08-17T04:25:06.839Z,29.91
2022-08-17T04:27:33.795Z,30.55
2022-08-17T04:30:01.139Z,31.03
2022-08-17T04:33:03.452Z,31.47
2022-08-17T04:35:18.383Z,31.88
2022-08-17T04:37:45.713Z,32.47
2022-08-17T04:40:31.382Z,32.80
2022-08-17T04:43:07.533Z,32.97
2022-08-17T04:45:34.761Z,33.15
2022-08-17T04:48:01.733Z,33.04
2022-08-17T04:50:28.687Z,33.20
2022-08-17T04:52:55.856Z,32.79
2022-08-17T04:55:22.947Z,32.94
2022-08-17T04:57:49.924Z,33.96
2022-08-17T05:00:16.961Z,34.55
2022-08-17T05:02:49.956Z,35.13
2022-08-17T05:05:23.102Z,35.75
2022-08-17T05:07:54.629Z,36.08
2022-08-17T05:10:22.736Z,36.71
2022-08-17T05:12:58.835Z,37.03
2022-08-17T05:15:25.627Z,37.40
2022-08-17T05:17:52.359Z,37.30
2022-08-17T05:20:19.143Z,37.39
2022-08-17T05:22:51.413Z,36.71
2022-08-17T05:25:20.643Z,36.70
2022-08-17T05:27:51.938Z,37.20
2022-08-17T05:30:19.118Z,37.66
2022-08-17T05:32:53.210Z,38.00
2022-08-17T05:35:20.896Z,37.99
2022-08-17T05:37:48.176Z,38.29
2022-08-17T05:40:15.279Z,38.43
2022-08-17T05:42:42.393Z,38.60
2022-08-17T05:45:10.913Z,38.21
2022-08-17T05:47:39.623Z,37.75
2022-08-17T05:50:09.855Z,37.80
2022-08-17T05:52:58.485Z,37.51
2022-08-17T05:56:00.325Z,37.25
2022-08-17T05:58:33.324Z,37.39
2022-08-17T06:01:15.638Z,37.44
2022-08-17T06:04:01.177Z,37.79
2022-08-17T06:06:51.043Z,37.87
2022-08-17T06:09:40.187Z,37.52
2022-08-17T06:12:26.488Z,37.44
2022-08-17T06:15:26.501Z,36.81
2022-08-17T06:17:56.625Z,37.29
2022-08-17T06:20:24.932Z,37.16
2022-08-17T06:22:56.309Z,37.77
2022-08-17T06:25:23.171Z,37.73
2022-08-17T06:27:54.410Z,37.39
2022-08-17T06:30:25.048Z,37.54
2022-08-17T06:32:53.465Z,38.26
2022-08-17T06:35:31.836Z,38.12
2022-08-17T06:38:07.251Z,38.62
2022-08-17T06:40:52.466Z,38.23
2022-08-17T06:43:54.143Z,38.22
2022-08-17T06:46:23.565Z,38.29
2022-08-17T06:49:09.779Z,37.64
2022-08-17T06:52:06.783Z,37.37
2022-08-17T06:54:39.451Z,35.59
2022-08-17T06:57:20.233Z,36.81
2022-08-17T06:59:56.790Z,36.74
2022-08-17T07:02:52.631Z,37.26
2022-08-17T07:05:25.160Z,36.54
2022-08-17T07:08:03.802Z,37.10
2022-08-17T07:10:43.692Z,38.23
2022-08-17T07:13:25.817Z,37.44
2022-08-17T07:15:57.213Z,38.43
2022-08-17T07:18:26.720Z,38.66
2022-08-17T07:20:58.433Z,37.61
2022-08-17T07:23:47.067Z,37.31
2022-08-17T07:26:13.980Z,36.96
2022-08-17T07:28:42.580Z,37.41
2022-08-17T07:31:13.473Z,37.66
2022-08-17T07:33:41.208Z,37.91
2022-08-17T07:36:29.628Z,38.10
2022-08-17T07:38:58.506Z,38.23
2022-08-17T07:41:25.588Z,37.90
2022-08-17T07:44:14.697Z,37.85
2022-08-17T07:47:09.524Z,38.19
2022-08-17T07:49:40.936Z,37.65
2022-08-17T07:52:48.227Z,37.71
2022-08-17T07:54:59.487Z,37.80
2022-08-17T07:57:31.131Z,38.24
2022-08-17T08:00:03.064Z,38.31
2022-08-17T08:02:40.425Z,38.67
2022-08-17T08:05:48.846Z,38.54
2022-08-17T08:08:25.461Z,38.32
2022-08-17T08:11:11.018Z,37.88
2022-08-17T08:13:45.194Z,37.08
2022-08-17T08:16:20.068Z,36.74
2022-08-17T08:18:55.662Z,38.52
2022-08-17T08:22:00.903Z,38.19
2022-08-17T08:24:50.735Z,39.23
2022-08-17T08:27:22.713Z,39.37
2022-08-17T08:29:56.645Z,39.48
2022-08-17T08:32:23.490Z,39.49
2022-08-17T08:35:20.490Z,40.31
2022-08-17T08:37:50.170Z,39.65
2022-08-17T08:40:41.845Z,39.06
2022-08-17T08:43:14.525Z,40.11
2022-08-17T08:45:58.119Z,39.93
2022-08-17T08:48:57.834Z,39.32
2022-08-17T08:51:25.466Z,39.09
2022-08-17T08:54:53.061Z,39.83
2022-08-17T08:57:33.514Z,39.84
2022-08-17T09:00:15.692Z,38.83
2022-08-17T09:02:54.733Z,39.75
2022-08-17T09:05:31.104Z,39.79
2022-08-17T09:08:01.906Z,38.71
2022-08-17T09:10:35.426Z,38.94
2022-08-17T09:13:39.200Z,39.05
2022-08-17T09:16:20.523Z,39.50
2022-08-17T09:19:03.478Z,39.37
2022-08-17T09:21:48.083Z,38.56
2022-08-17T09:24:40.327Z,39.08
2022-08-17T09:27:19.208Z,39.62
2022-08-17T09:29:49.950Z,39.53
2022-08-17T09:32:21.907Z,39.81
2022-08-17T09:34:54.927Z,39.74
2022-08-17T09:37:34.311Z,38.45
2022-08-17T09:40:09.853Z,39.47
2022-08-17T09:42:49.370Z,40.36
2022-08-17T09:45:27.377Z,40.25
2022-08-17T09:48:49.031Z,41.23
2022-08-17T09:51:18.777Z,40.85
2022-08-17T09:53:45.774Z,41.35
2022-08-17T09:56:18.422Z,40.84
2022-08-17T09:59:03.584Z,40.50
2022-08-17T10:01:38.189Z,40.45
2022-08-17T10:04:20.361Z,40.50
2022-08-17T10:07:02.682Z,40.26
2022-08-17T10:10:01.340Z,40.22
2022-08-17T10:12:30.222Z,39.31
2022-08-17T10:15:25.056Z,38.40
2022-08-17T10:18:33.159Z,39.57
2022-08-17T10:21:31.363Z,38.78
2022-08-17T10:24:29.203Z,39.89
2022-08-17T10:26:58.506Z,41.03
2022-08-17T10:29:48.409Z,41.88
2022-08-17T10:32:48.754Z,41.94
2022-08-17T10:35:31.173Z,40.75
2022-08-17T10:38:24.593Z,41.34
2022-08-17T10:40:59.393Z,41.66
2022-08-17T10:43:38.639Z,41.22
2022-08-17T10:46:31.176Z,40.75
2022-08-17T10:49:16.923Z,41.68
2022-08-17T10:51:55.591Z,41.96
2022-08-17T10:54:25.209Z,42.29
2022-08-17T10:56:54.274Z,42.57
2022-08-17T10:59:36.306Z,42.17
2022-08-17T11:02:23.295Z,40.26
2022-08-17T11:05:18.032Z,38.74
2022-08-17T11:08:13.037Z,39.94
2022-08-17T11:10:51.913Z,39.31
2022-08-17T11:13:48.617Z,39.27
2022-08-17T11:16:49.966Z,39.59
2022-08-17T11:19:47.302Z,39.26
2022-08-17T11:22:58.188Z,40.66
2022-08-17T11:25:40.582Z,41.18
2022-08-17T11:28:19.386Z,41.66
2022-08-17T11:30:51.368Z,41.41
2022-08-17T11:33:30.415Z,41.15
2022-08-17T11:36:17.738Z,40.32
2022-08-17T11:39:01.860Z,40.01
2022-08-17T11:41:57.879Z,40.99
2022-08-17T11:44:42.409Z,41.47
2022-08-17T11:47:56.984Z,41.74
2022-08-17T11:51:13.196Z,40.67
2022-08-17T11:53:40.057Z,40.80
2022-08-17T11:56:09.731Z,41.39
2022-08-17T11:58:38.779Z,40.05
2022-08-17T12:01:08.767Z,39.42
2022-08-17T12:03:35.606Z,40.15
2022-08-17T12:06:19.713Z,41.04
2022-08-17T12:08:56.224Z,40.11
2022-08-17T12:11:58.616Z,39.14
2022-08-17T12:15:08.401Z,39.10
2022-08-17T12:17:40.938Z,39.95
2022-08-17T12:20:23.271Z,40.50
2022-08-17T12:23:20.043Z,40.00
2022-08-17T12:25:51.921Z,40.02
2022-08-17T12:28:26.327Z,40.28
2022-08-17T12:30:53.554Z,40.79
2022-08-17T12:33:28.026Z,40.06
2022-08-17T12:35:59.707Z,38.53
2022-08-17T12:38:33.109Z,38.71
2022-08-17T12:41:21.188Z,38.66
2022-08-17T12:44:02.472Z,38.48
2022-08-17T12:46:55.621Z,38.82
2022-08-17T12:49:26.654Z,38.85
2022-08-17T12:52:08.287Z,39.41
2022-08-17T12:54:47.319Z,39.22
2022-08-17T12:57:22.658Z,39.51
2022-08-17T12:59:54.105Z,39.31
2022-08-17T13:02:28.491Z,39.40
2022-08-17T13:04:57.632Z,40.16
2022-08-17T13:07:36.145Z,40.14
2022-08-17T13:10:03.949Z,39.82
2022-08-17T13:12:35.187Z,39.09
2022-08-17T13:15:02.144Z,39.83
2022-08-17T13:17:32.875Z,39.72
2022-08-17T13:19:59.987Z,40.03
2022-08-17T13:22:28.680Z,40.14
2022-08-17T13:24:58.894Z,39.51
2022-08-17T13:27:28.133Z,39.09
2022-08-17T13:29:59.711Z,38.80
2022-08-17T13:32:44.077Z,39.17
2022-08-17T13:35:40.080Z,39.36
2022-08-17T13:38:14.082Z,39.01
2022-08-17T13:40:58.981Z,39.02
2022-08-17T13:43:44.647Z,38.64
2022-08-17T13:46:32.602Z,38.18
2022-08-17T13:49:10.006Z,37.67
2022-08-17T13:51:43.435Z,38.08
2022-08-17T13:54:30.482Z,39.11
2022-08-17T13:57:05.995Z,39.02
2022-08-17T13:59:54.992Z,39.02
2022-08-17T14:02:26.624Z,38.95
2022-08-17T14:04:59.170Z,38.73
2022-08-17T14:07:36.063Z,38.83
2022-08-17T14:10:06.632Z,39.00
2022-08-17T14:12:34.999Z,39.26
2022-08-17T14:15:02.081Z,38.90
2022-08-17T14:17:30.496Z,37.92
2022-08-17T14:19:59.566Z,38.80
2022-08-17T14:22:31.979Z,39.06
2022-08-17T14:25:01.759Z,39.05
2022-08-17T14:27:32.020Z,38.37
2022-08-17T14:29:59.220Z,38.32
2022-08-17T14:32:29.799Z,38.54
2022-08-17T14:34:57.873Z,38.01
2022-08-17T14:37:28.100Z,37.61
2022-08-17T14:39:58.037Z,36.44
2022-08-17T14:42:27.286Z,37.53
2022-08-17T14:44:58.956Z,37.93
2022-08-17T14:47:27.775Z,38.45
2022-08-17T14:49:54.692Z,37.96
2022-08-17T14:52:22.234Z,37.70
2022-08-17T14:54:51.618Z,37.80
2022-08-17T14:57:33.463Z,37.87
2022-08-17T15:00:02.714Z,37.37
2022-08-17T15:02:31.088Z,37.54
2022-08-17T15:05:04.396Z,37.62
2022-08-17T15:07:31.859Z,37.56
2022-08-17T15:10:01.398Z,37.48
2022-08-17T15:12:33.196Z,37.73
2022-08-17T15:15:01.598Z,37.81
2022-08-17T15:17:44.643Z,38.38
2022-08-17T15:20:18.568Z,37.40
2022-08-17T15:22:47.265Z,37.38
2022-08-17T15:25:14.453Z,38.14
2022-08-17T15:27:42.091Z,38.49
2022-08-17T15:30:10.244Z,38.64
2022-08-17T15:32:39.825Z,38.80
2022-08-17T15:35:09.036Z,38.14
2022-08-17T15:37:36.503Z,37.78
2022-08-17T15:40:05.483Z,37.62
2022-08-17T15:42:33.138Z,38.25
2022-08-17T15:45:06.346Z,37.33
2022-08-17T15:47:33.305Z,37.23
2022-08-17T15:50:00.589Z,37.06
2022-08-17T15:52:29.938Z,37.42
2022-08-17T15:54:59.730Z,37.31
2022-08-17T15:57:27.804Z,37.53
2022-08-17T15:59:58.617Z,37.59
2022-08-17T16:03:14.083Z,37.55
2022-08-17T16:05:24.240Z,37.48
2022-08-17T16:07:52.701Z,36.96
2022-08-17T16:10:20.041Z,37.67
2022-08-17T16:12:48.702Z,37.21
2022-08-17T16:15:16.440Z,37.13
2022-08-17T16:17:43.533Z,37.38
2022-08-17T16:20:20.011Z,37.27
2022-08-17T16:22:49.279Z,37.11
2022-08-17T16:25:40.290Z,37.30
2022-08-17T16:28:12.677Z,37.39
2022-08-17T16:30:39.805Z,36.65
2022-08-17T16:33:07.105Z,36.17
2022-08-17T16:35:34.051Z,36.57
2022-08-17T16:38:01.140Z,36.93
2022-08-17T16:40:29.549Z,36.19
2022-08-17T16:42:58.268Z,36.31
2022-08-17T16:45:27.882Z,36.46
2022-08-17T16:47:58.089Z,36.29
2022-08-17T16:50:25.285Z,36.47
2022-08-17T16:52:52.459Z,35.91
2022-08-17T16:55:21.779Z,36.31
2022-08-17T16:57:50.259Z,36.70
2022-08-17T17:00:18.450Z,36.79
2022-08-17T17:02:47.975Z,36.59
2022-08-17T17:05:36.126Z,36.59
2022-08-17T17:08:09.736Z,36.74
2022-08-17T17:10:41.036Z,36.61
2022-08-17T17:13:47.933Z,36.47
2022-08-17T17:16:27.084Z,36.37
2022-08-17T17:19:10.687Z,36.42
2022-08-17T17:22:36.394Z,36.33
2022-08-17T17:25:21.804Z,36.38
2022-08-17T17:27:54.581Z,36.17
2022-08-17T17:30:27.795Z,36.80
2022-08-17T17:33:13.498Z,37.04
2022-08-17T17:35:59.442Z,37.17
2022-08-17T17:38:39.367Z,36.96
2022-08-17T17:41:12.150Z,36.40
2022-08-17T17:43:40.283Z,36.24
2022-08-17T17:46:29.089Z,36.31
2022-08-17T17:48:57.726Z,36.38
2022-08-17T17:51:54.734Z,37.21
2022-08-17T17:54:42.419Z,36.75
2022-08-17T17:57:45.176Z,36.01
2022-08-17T18:00:19.633Z,36.82
2022-08-17T18:03:04.895Z,37.21
2022-08-17T18:05:44.523Z,36.93
2022-08-17T18:08:53.176Z,37.13
2022-08-17T18:11:40.074Z,36.97
2022-08-17T18:14:17.397Z,36.59
2022-08-17T18:16:46.589Z,36.22
2022-08-17T18:19:21.215Z,36.92
2022-08-17T18:21:52.525Z,36.40
2022-08-17T18:24:30.847Z,36.57
2022-08-17T18:26:59.570Z,36.32
2022-08-17T18:29:26.505Z,35.80
2022-08-17T18:32:32.108Z,35.67
2022-08-17T18:35:11.236Z,36.36
2022-08-17T18:37:42.872Z,36.20
2022-08-17T18:40:19.294Z,35.79
2022-08-17T18:42:51.814Z,34.73
2022-08-17T18:45:49.082Z,34.47
2022-08-17T18:48:21.578Z,34.75
2022-08-17T18:50:51.484Z,35.00
2022-08-17T18:53:26.654Z,34.97
2022-08-17T18:56:27.172Z,34.90
2022-08-17T18:59:04.682Z,34.76
2022-08-17T19:02:10.251Z,35.05
2022-08-17T19:05:08.710Z,34.95
2022-08-17T19:07:42.016Z,34.53
2022-08-17T19:10:17.164Z,34.55
2022-08-17T19:13:12.671Z,34.12
2022-08-17T19:16:14.136Z,34.01
2022-08-17T19:18:47.624Z,34.06
2022-08-17T19:21:27.735Z,33.80
2022-08-17T19:24:19.725Z,34.15
2022-08-17T19:27:18.297Z,34.11
2022-08-17T19:29:51.901Z,33.69
2022-08-17T19:32:23.370Z,33.48
2022-08-17T19:34:50.549Z,33.53
2022-08-17T19:37:26.886Z,33.77
2022-08-17T19:40:08.947Z,33.67
2022-08-17T19:42:47.854Z,33.81
2022-08-17T19:45:35.494Z,33.69
2022-08-17T19:48:36.659Z,33.28
2022-08-17T19:51:50.785Z,33.61
2022-08-17T19:54:29.149Z,32.84
2022-08-17T19:57:05.322Z,32.85
2022-08-17T19:59:49.133Z,33.01
2022-08-17T20:02:22.064Z,33.47
2022-08-17T20:04:50.698Z,32.90
2022-08-17T20:07:24.042Z,32.87
2022-08-17T20:10:04.285Z,32.65
2022-08-17T20:12:38.549Z,32.67
2022-08-17T20:15:10.979Z,32.88
2022-08-17T20:17:42.031Z,32.42
2022-08-17T20:20:19.574Z,32.32
2022-08-17T20:23:18.967Z,32.17
2022-08-17T20:26:23.124Z,31.57
2022-08-17T20:29:14.820Z,31.54
2022-08-17T20:31:55.285Z,31.80
2022-08-17T20:34:31.037Z,32.01
2022-08-17T20:37:07.298Z,32.07
2022-08-17T20:39:40.820Z,31.99
2022-08-17T20:42:09.941Z,31.88
2022-08-17T20:44:40.095Z,31.80
2022-08-17T20:48:00.772Z,31.09
2022-08-17T20:50:43.630Z,31.75
2022-08-17T20:53:14.993Z,31.38
2022-08-17T20:55:51.659Z,31.62
2022-08-17T20:58:31.086Z,31.31
2022-08-17T21:00:59.036Z,30.88
2022-08-17T21:03:43.149Z,30.57
2022-08-17T21:06:18.366Z,30.24
2022-08-17T21:09:19.599Z,30.23
2022-08-17T21:12:04.012Z,30.57
2022-08-17T21:14:38.181Z,30.29
2022-08-17T21:17:22.401Z,30.49
2022-08-17T21:20:11.975Z,30.30
2022-08-17T21:23:10.408Z,30.62
2022-08-17T21:25:40.225Z,30.25
2022-08-17T21:29:00.338Z,30.01
2022-08-17T21:31:31.242Z,30.01
2022-08-17T21:34:33.028Z,30.31
2022-08-17T21:37:29.737Z,30.42
2022-08-17T21:40:01.371Z,30.19
2022-08-17T21:42:32.323Z,30.24
2022-08-17T21:45:12.539Z,30.67
2022-08-17T21:47:45.391Z,31.09
2022-08-17T21:50:17.369Z,31.06
2022-08-17T21:52:44.334Z,30.96
2022-08-17T21:55:21.661Z,30.55
2022-08-17T21:57:55.422Z,30.61
2022-08-17T22:00:36.982Z,30.71
2022-08-17T22:03:07.316Z,30.92
2022-08-17T22:05:37.202Z,30.99
2022-08-17T22:08:16.531Z,30.67
2022-08-17T22:10:45.556Z,30.21
2022-08-17T22:13:20.988Z,30.91
2022-08-17T22:16:27.931Z,30.56
2022-08-17T22:18:53.667Z,30.53
2022-08-17T22:21:22.742Z,30.71
2022-08-17T22:24:04.882Z,30.76
2022-08-17T22:26:59.331Z,30.62
2022-08-17T22:29:53.352Z,30.44
2022-08-17T22:32:38.678Z,30.27
2022-08-17T22:35:34.861Z,30.45
2022-08-17T22:38:20.220Z,30.19
2022-08-17T22:40:51.974Z,30.23
2022-08-17T22:43:25.970Z,30.51
2022-08-17T22:45:55.834Z,29.81
2022-08-17T22:48:27.108Z,30.53
2022-08-17T22:51:12.774Z,30.69
2022-08-17T22:54:08.056Z,30.53
2022-08-17T22:56:53.941Z,30.21
2022-08-17T22:59:43.784Z,29.59
2022-08-17T23:02:55.208Z,29.84
2022-08-17T23:05:24.207Z,29.56
2022-08-17T23:07:52.950Z,29.70
2022-08-17T23:10:20.002Z,29.71
2022-08-17T23:12:47.027Z,29.61
2022-08-17T23:15:16.720Z,29.32
2022-08-17T23:17:47.148Z,29.44
2022-08-17T23:20:15.668Z,29.27
2022-08-17T23:22:51.822Z,29.63
2022-08-17T23:25:25.871Z,29.04
2022-08-17T23:27:52.951Z,29.17
2022-08-17T23:30:20.356Z,30.26
2022-08-17T23:32:53.922Z,30.28
2022-08-17T23:35:39.966Z,30.05
2022-08-17T23:38:08.985Z,30.04
2022-08-17T23:40:35.918Z,29.55
2022-08-17T23:43:11.433Z,29.98
2022-08-17T23:45:57.675Z,29.66
2022-08-17T23:48:36.089Z,29.75
2022-08-17T23:51:24.424Z,29.55
2022-08-17T23:53:52.011Z,29.29
2022-08-17T23:56:24.775Z,28.93
2022-08-17T23:58:53.160Z,28.96
